createdAt,value
2019-01-21T00:00:47.654Z,0.00
2019-01-21T00:01:47.617Z,0.00
2019-01-21T00:02:47.661Z,0.00
2019-01-21T00:03:47.705Z,0.00
2019-01-21T00:04:47.750Z,0.00
2019-01-21T00:05:47.797Z,0.00
2019-01-21T00:06:47.839Z,0.00
2019-01-21T00:07:47.884Z,0.00
2019-01-21T00:08:47.929Z,0.00
2019-01-21T00:09:47.971Z,0.00
2019-01-21T00:10:48.019Z,0.00
2019-01-21T00:11:48.060Z,0.00
2019-01-21T00:12:48.108Z,0.00
2019-01-21T00:13:48.151Z,0.00
2019-01-21T00:14:48.195Z,0.00
2019-01-21T00:15:48.329Z,0.00
2019-01-21T00:16:48.283Z,0.00
2019-01-21T00:17:48.329Z,0.00
2019-01-21T00:18:48.371Z,0.00
2019-01-21T00:19:48.415Z,0.00
2019-01-21T00:20:48.461Z,0.00
2019-01-21T00:21:48.507Z,0.00
2019-01-21T00:22:48.547Z,0.00
2019-01-21T00:23:48.594Z,0.00
2019-01-21T00:24:48.640Z,0.00
2019-01-21T00:25:48.686Z,0.00
2019-01-21T00:26:48.728Z,0.00
2019-01-21T00:27:48.772Z,0.00
2019-01-21T00:28:48.817Z,0.00
2019-01-21T00:29:48.860Z,0.00
2019-01-21T00:30:48.905Z,0.00
2019-01-21T00:31:48.952Z,0.00
2019-01-21T00:32:48.994Z,0.00
2019-01-21T00:33:49.038Z,0.00
2019-01-21T00:34:49.082Z,0.00
2019-01-21T00:35:49.127Z,0.00
2019-01-21T00:36:49.171Z,0.00
2019-01-21T00:37:49.216Z,0.00
2019-01-21T00:38:49.259Z,0.00
2019-01-21T00:39:49.308Z,0.00
2019-01-21T00:40:49.349Z,0.00
2019-01-21T00:41:49.393Z,0.00
2019-01-21T00:42:49.436Z,0.00
2019-01-21T00:43:49.482Z,0.00
2019-01-21T00:44:49.526Z,0.00
2019-01-21T00:45:49.569Z,0.00
2019-01-21T00:46:49.613Z,0.00
2019-01-21T00:47:49.659Z,0.00
2019-01-21T00:48:49.705Z,0.00
2019-01-21T00:49:49.749Z,0.00
2019-01-21T00:50:49.797Z,0.00
2019-01-21T00:51:49.837Z,0.00
2019-01-21T00:52:49.882Z,0.00
2019-01-21T00:53:49.924Z,0.00
2019-01-21T00:54:51.062Z,0.00
2019-01-21T00:55:50.014Z,0.00
2019-01-21T00:56:50.058Z,0.00
2019-01-21T00:57:50.102Z,0.00
2019-01-21T00:58:50.146Z,0.00
2019-01-21T00:59:50.188Z,0.00
2019-01-21T01:00:50.235Z,0.00
2019-01-21T01:01:50.278Z,0.00
2019-01-21T01:02:50.321Z,0.00
2019-01-21T01:03:50.366Z,0.00
2019-01-21T01:04:50.410Z,0.00
2019-01-21T01:05:50.453Z,0.00
2019-01-21T01:06:50.498Z,0.00
2019-01-21T01:07:50.547Z,0.00
2019-01-21T01:08:50.587Z,0.00
2019-01-21T01:09:50.632Z,0.00
2019-01-21T01:10:50.679Z,0.00
2019-01-21T01:11:50.737Z,0.00
2019-01-21T01:12:50.764Z,0.00
2019-01-21T01:13:50.808Z,0.00
2019-01-21T01:14:50.852Z,0.00
2019-01-21T01:15:50.895Z,0.00
2019-01-21T01:16:50.941Z,0.00
2019-01-21T01:17:50.983Z,0.00
2019-01-21T01:18:51.037Z,0.00
2019-01-21T01:19:51.073Z,0.00
2019-01-21T01:20:51.117Z,0.00
2019-01-21T01:21:51.161Z,0.00
2019-01-21T01:22:51.206Z,0.00
2019-01-21T01:23:51.249Z,0.00
2019-01-21T01:24:51.294Z,0.00
2019-01-21T01:25:51.337Z,0.00
2019-01-21T01:26:51.380Z,0.00
2019-01-21T01:27:51.425Z,0.00
2019-01-21T01:28:51.470Z,0.00
2019-01-21T01:29:51.552Z,0.00
2019-01-21T01:30:51.558Z,0.00
2019-01-21T01:31:51.602Z,0.00
2019-01-21T01:32:51.649Z,0.00
2019-01-21T01:33:51.689Z,0.00
2019-01-21T01:34:51.733Z,0.00
2019-01-21T01:35:51.778Z,0.00
2019-01-21T01:36:51.822Z,0.00
2019-01-21T01:37:51.868Z,0.00
2019-01-21T01:38:51.910Z,0.00
2019-01-21T01:39:51.954Z,0.00
2019-01-21T01:40:51.998Z,0.00
2019-01-21T01:41:52.042Z,0.00
2019-01-21T01:42:52.086Z,0.00
2019-01-21T01:43:52.130Z,0.00
2019-01-21T01:44:52.175Z,0.00
2019-01-21T01:45:52.217Z,0.00
2019-01-21T01:46:52.263Z,0.00
2019-01-21T01:47:52.309Z,0.00
2019-01-21T01:48:52.349Z,0.00
2019-01-21T01:49:52.393Z,0.00
2019-01-21T01:50:52.437Z,0.00
2019-01-21T01:51:52.482Z,0.00
2019-01-21T01:52:52.530Z,0.00
2019-01-21T01:53:52.573Z,0.00
2019-01-21T01:54:52.616Z,0.00
2019-01-21T01:55:52.659Z,0.00
2019-01-21T01:56:52.702Z,0.00
2019-01-21T01:57:52.746Z,0.00
2019-01-21T01:58:52.789Z,0.00
2019-01-21T01:59:52.835Z,0.00
2019-01-21T02:00:52.879Z,0.00
2019-01-21T02:01:52.921Z,0.00
2019-01-21T02:02:52.967Z,0.00
2019-01-21T02:03:53.010Z,0.00
2019-01-21T02:04:53.055Z,0.00
2019-01-21T02:05:53.149Z,0.00
2019-01-21T02:06:53.141Z,0.00
2019-01-21T02:07:53.187Z,0.00
2019-01-21T02:08:53.231Z,0.00
2019-01-21T02:09:53.273Z,0.00
2019-01-21T02:10:53.317Z,0.00
2019-01-21T02:11:53.363Z,0.00
2019-01-21T02:12:53.406Z,0.00
2019-01-21T02:13:53.450Z,0.00
2019-01-21T02:14:53.493Z,0.00
2019-01-21T02:15:53.538Z,0.00
2019-01-21T02:16:53.583Z,0.00
2019-01-21T02:17:53.625Z,0.00
2019-01-21T02:18:53.672Z,0.00
2019-01-21T02:19:53.715Z,0.00
2019-01-21T02:20:53.759Z,0.00
2019-01-21T02:21:53.800Z,0.00
2019-01-21T02:22:53.846Z,0.00
2019-01-21T02:23:53.890Z,0.00
2019-01-21T02:24:53.934Z,0.00
2019-01-21T02:25:53.977Z,0.00
2019-01-21T02:26:54.021Z,0.00
2019-01-21T02:27:54.065Z,0.00
2019-01-21T02:28:54.109Z,0.00
2019-01-21T02:29:54.152Z,0.00
2019-01-21T02:30:54.199Z,0.00
2019-01-21T02:31:54.241Z,0.00
2019-01-21T02:32:54.285Z,0.00
2019-01-21T02:33:54.328Z,0.00
2019-01-21T02:34:54.372Z,0.00
2019-01-21T02:35:54.423Z,0.00
2019-01-21T02:36:54.460Z,0.00
2019-01-21T02:37:54.508Z,0.00
2019-01-21T02:38:54.549Z,0.00
2019-01-21T02:39:54.901Z,0.00
2019-01-21T02:40:54.635Z,0.00
2019-01-21T02:41:54.678Z,0.00
2019-01-21T02:42:54.724Z,0.00
2019-01-21T02:43:54.770Z,0.00
2019-01-21T02:44:54.814Z,0.00
2019-01-21T02:45:54.856Z,0.00
2019-01-21T02:46:54.897Z,0.00
2019-01-21T02:48:00.071Z,0.00
2019-01-21T02:48:54.986Z,0.00
2019-01-21T02:49:55.030Z,0.00
2019-01-21T02:50:55.073Z,0.00
2019-01-21T02:51:55.119Z,0.00
2019-01-21T02:52:55.165Z,0.00
2019-01-21T02:53:55.210Z,0.00
2019-01-21T02:54:55.249Z,0.00
2019-01-21T02:55:55.292Z,0.00
2019-01-21T02:56:55.337Z,0.00
2019-01-21T02:57:55.380Z,0.00
2019-01-21T02:58:55.423Z,0.00
2019-01-21T02:59:55.468Z,0.00
2019-01-21T03:00:55.555Z,0.00
2019-01-21T03:01:55.555Z,0.00
2019-01-21T03:02:55.599Z,0.00
2019-01-21T03:03:55.643Z,0.00
2019-01-21T03:04:55.686Z,0.00
2019-01-21T03:05:55.730Z,0.00
2019-01-21T03:06:55.773Z,0.00
2019-01-21T03:07:55.818Z,0.00
2019-01-21T03:08:55.862Z,0.00
2019-01-21T03:09:55.904Z,0.00
2019-01-21T03:10:55.952Z,0.00
2019-01-21T03:11:55.991Z,0.00
2019-01-21T03:12:56.035Z,0.00
2019-01-21T03:13:56.081Z,0.00
2019-01-21T03:14:56.123Z,0.00
2019-01-21T03:15:56.166Z,0.00
2019-01-21T03:16:56.210Z,0.00
2019-01-21T03:17:56.254Z,0.00
2019-01-21T03:18:56.299Z,0.00
2019-01-21T03:19:56.342Z,0.00
2019-01-21T03:20:56.385Z,0.00
2019-01-21T03:21:56.429Z,0.00
2019-01-21T03:22:56.473Z,0.00
2019-01-21T03:23:56.519Z,0.00
2019-01-21T03:24:56.604Z,0.00
2019-01-21T03:25:56.603Z,0.00
2019-01-21T03:26:56.649Z,0.00
2019-01-21T03:27:56.694Z,0.00
2019-01-21T03:28:56.735Z,0.00
2019-01-21T03:29:56.778Z,0.00
2019-01-21T03:30:56.823Z,0.00
2019-01-21T03:31:56.868Z,0.00
2019-01-21T03:32:56.912Z,0.00
2019-01-21T03:33:56.958Z,0.00
2019-01-21T03:34:56.998Z,0.00
2019-01-21T03:35:57.043Z,0.00
2019-01-21T03:36:57.087Z,0.00
2019-01-21T03:37:57.130Z,0.00
2019-01-21T03:38:57.173Z,0.00
2019-01-21T03:39:57.215Z,0.00
2019-01-21T03:40:57.262Z,0.00
2019-01-21T03:41:57.303Z,0.00
2019-01-21T03:42:57.346Z,0.00
2019-01-21T03:43:57.390Z,0.00
2019-01-21T03:44:57.434Z,0.00
2019-01-21T03:45:57.477Z,0.00
2019-01-21T03:46:57.521Z,0.00
2019-01-21T03:47:57.563Z,0.00
2019-01-21T03:48:57.608Z,0.00
2019-01-21T03:49:57.651Z,0.00
2019-01-21T03:50:57.697Z,0.00
2019-01-21T03:51:57.739Z,0.00
2019-01-21T03:52:57.781Z,0.00
2019-01-21T03:53:57.825Z,0.00
2019-01-21T03:54:57.870Z,0.00
2019-01-21T03:55:57.921Z,0.00
2019-01-21T03:56:57.960Z,0.00
2019-01-21T03:57:58.000Z,0.00
2019-01-21T03:58:58.045Z,0.00
2019-01-21T03:59:58.088Z,0.00
2019-01-21T04:00:58.132Z,0.00
2019-01-21T04:01:58.173Z,0.00
2019-01-21T04:02:58.221Z,0.00
2019-01-21T04:03:58.811Z,0.00
2019-01-21T04:04:58.809Z,0.00
2019-01-21T04:05:58.959Z,0.00
2019-01-21T04:06:58.993Z,0.00
2019-01-21T04:07:58.437Z,0.00
2019-01-21T04:08:58.480Z,0.00
2019-01-21T04:09:58.522Z,0.00
2019-01-21T04:10:58.567Z,0.00
2019-01-21T04:11:58.620Z,0.00
2019-01-21T04:12:58.654Z,0.00
2019-01-21T04:13:58.698Z,0.00
2019-01-21T04:14:58.748Z,0.00
2019-01-21T04:15:58.786Z,0.00
2019-01-21T04:16:58.830Z,0.00
2019-01-21T04:17:58.874Z,0.00
2019-01-21T04:18:58.929Z,0.00
2019-01-21T04:19:58.961Z,0.00
2019-01-21T04:20:59.005Z,0.00
2019-01-21T04:21:59.050Z,0.00
2019-01-21T04:22:59.095Z,0.00
2019-01-21T04:23:59.133Z,0.00
2019-01-21T04:24:59.180Z,0.00
2019-01-21T04:25:59.222Z,0.00
2019-01-21T04:26:59.265Z,0.00
2019-01-21T04:27:59.308Z,0.00
2019-01-21T04:28:59.353Z,0.00
2019-01-21T04:29:59.395Z,0.00
2019-01-21T04:30:59.440Z,0.00
2019-01-21T04:31:59.490Z,0.00
2019-01-21T04:32:59.553Z,0.00
2019-01-21T04:33:59.569Z,0.00
2019-01-21T04:34:59.612Z,0.00
2019-01-21T04:35:59.657Z,0.00
2019-01-21T04:36:59.700Z,0.00
2019-01-21T04:37:59.746Z,0.00
2019-01-21T04:38:59.791Z,0.00
2019-01-21T04:39:59.831Z,0.00
2019-01-21T04:40:59.874Z,0.00
2019-01-21T04:41:59.920Z,0.00
2019-01-21T04:42:59.967Z,0.00
2019-01-21T04:44:00.004Z,0.00
2019-01-21T04:45:00.348Z,0.00
2019-01-21T04:46:00.091Z,0.00
2019-01-21T04:47:00.135Z,0.00
2019-01-21T04:48:00.180Z,0.00
2019-01-21T04:49:00.222Z,0.00
2019-01-21T04:50:00.277Z,0.00
2019-01-21T04:51:00.306Z,0.00
2019-01-21T04:52:00.351Z,0.00
2019-01-21T04:53:00.393Z,0.00
2019-01-21T04:54:00.437Z,0.00
2019-01-21T04:55:00.480Z,0.00
2019-01-21T04:56:00.529Z,0.00
2019-01-21T04:57:00.577Z,4.00
2019-01-21T04:58:00.614Z,4.00
2019-01-21T04:59:00.665Z,4.00
2019-01-21T05:00:00.700Z,4.00
2019-01-21T05:01:00.772Z,4.00
2019-01-21T05:02:00.783Z,4.00
2019-01-21T05:03:00.827Z,4.00
2019-01-21T05:04:00.869Z,4.00
2019-01-21T05:05:00.915Z,4.00
2019-01-21T05:06:00.955Z,4.00
2019-01-21T05:07:00.998Z,4.00
2019-01-21T05:08:01.046Z,4.00
2019-01-21T05:09:01.088Z,4.00
2019-01-21T05:10:01.130Z,4.00
2019-01-21T05:11:01.172Z,4.00
2019-01-21T05:12:01.218Z,4.00
2019-01-21T05:13:01.259Z,4.00
2019-01-21T05:14:01.300Z,4.00
2019-01-21T05:15:01.365Z,4.00
2019-01-21T05:16:01.391Z,4.00
2019-01-21T05:17:01.441Z,4.00
2019-01-21T05:18:01.473Z,4.00
2019-01-21T05:19:01.520Z,4.00
2019-01-21T05:20:01.561Z,4.00
2019-01-21T05:21:01.605Z,4.00
2019-01-21T05:22:01.650Z,4.00
2019-01-21T05:23:01.691Z,4.00
2019-01-21T05:24:01.734Z,4.00
2019-01-21T05:25:01.847Z,4.00
2019-01-21T05:26:01.820Z,4.00
2019-01-21T05:27:01.864Z,4.00
2019-01-21T05:28:01.915Z,4.00
2019-01-21T05:29:01.952Z,4.00
2019-01-21T05:30:01.994Z,4.00
2019-01-21T05:31:02.036Z,4.00
2019-01-21T05:32:02.114Z,4.00
2019-01-21T05:33:02.125Z,4.00
2019-01-21T05:34:02.166Z,4.00
2019-01-21T05:35:02.212Z,4.00
2019-01-21T05:36:02.255Z,4.00
2019-01-21T05:37:02.297Z,4.00
2019-01-21T05:38:02.340Z,4.00
2019-01-21T05:39:02.389Z,4.00
2019-01-21T05:40:02.427Z,4.00
2019-01-21T05:41:02.469Z,4.00
2019-01-21T05:42:02.512Z,4.00
2019-01-21T05:43:02.557Z,4.00
2019-01-21T05:44:02.599Z,4.00
2019-01-21T05:45:02.644Z,4.00
2019-01-21T05:46:02.684Z,4.00
2019-01-21T05:47:02.730Z,4.00
2019-01-21T05:48:02.772Z,4.00
2019-01-21T05:49:02.815Z,4.00
2019-01-21T05:50:02.857Z,4.00
2019-01-21T05:51:02.901Z,4.00
2019-01-21T05:52:02.945Z,4.00
2019-01-21T05:53:02.986Z,4.00
2019-01-21T05:54:03.031Z,4.00
2019-01-21T05:55:03.078Z,4.00
2019-01-21T05:56:03.116Z,4.00
2019-01-21T05:57:03.161Z,4.00
2019-01-21T05:58:03.205Z,4.00
2019-01-21T05:59:03.249Z,4.00
2019-01-21T06:00:03.289Z,4.00
2019-01-21T06:01:03.339Z,4.00
2019-01-21T06:02:03.377Z,4.00
2019-01-21T06:03:03.418Z,4.00
2019-01-21T06:04:03.783Z,4.00
2019-01-21T06:05:03.510Z,4.00
2019-01-21T06:06:03.547Z,4.00
2019-01-21T06:07:03.592Z,4.00
2019-01-21T06:08:03.633Z,4.00
2019-01-21T06:09:03.678Z,4.00
2019-01-21T06:10:03.718Z,4.00
2019-01-21T06:11:03.765Z,4.00
2019-01-21T06:12:03.809Z,4.00
2019-01-21T06:13:03.849Z,4.00
2019-01-21T06:14:03.893Z,4.00
2019-01-21T06:15:03.934Z,4.00
2019-01-21T06:16:03.978Z,4.00
2019-01-21T06:17:04.035Z,4.00
2019-01-21T06:18:04.063Z,4.00
2019-01-21T06:19:04.113Z,4.00
2019-01-21T06:20:04.152Z,4.00
2019-01-21T06:21:04.193Z,4.00
2019-01-21T06:22:04.237Z,4.00
2019-01-21T06:23:04.279Z,4.00
2019-01-21T06:24:04.322Z,4.00
2019-01-21T06:25:04.371Z,4.00
2019-01-21T06:26:04.408Z,4.00
2019-01-21T06:27:04.451Z,4.00
2019-01-21T06:28:04.493Z,4.00
2019-01-21T06:29:04.537Z,4.00
2019-01-21T06:30:04.579Z,4.00
2019-01-21T06:31:04.627Z,4.00
2019-01-21T06:32:04.665Z,4.00
2019-01-21T06:33:04.708Z,4.00
2019-01-21T06:34:04.752Z,4.00
2019-01-21T06:35:04.797Z,4.00
2019-01-21T06:36:04.840Z,4.00
2019-01-21T06:37:04.881Z,4.00
2019-01-21T06:38:04.922Z,4.00
2019-01-21T06:39:04.965Z,4.00
2019-01-21T06:40:05.009Z,4.00
2019-01-21T06:41:05.053Z,4.00
2019-01-21T06:42:05.094Z,4.00
2019-01-21T06:43:05.137Z,8.00
2019-01-21T06:44:05.180Z,8.00
2019-01-21T06:45:05.227Z,4.00
2019-01-21T06:46:05.266Z,8.00
2019-01-21T06:47:05.307Z,8.00
2019-01-21T06:48:05.352Z,12.00
2019-01-21T06:49:05.410Z,8.00
2019-01-21T06:50:05.437Z,12.00
2019-01-21T06:51:05.480Z,8.00
2019-01-21T06:52:05.526Z,12.00
2019-01-21T06:53:05.569Z,12.00
2019-01-21T06:54:05.608Z,12.00
2019-01-21T06:55:05.652Z,16.00
2019-01-21T06:56:05.697Z,16.00
2019-01-21T06:57:05.737Z,16.00
2019-01-21T06:58:05.780Z,20.00
2019-01-21T06:59:05.823Z,20.00
2019-01-21T07:00:05.865Z,28.00
2019-01-21T07:01:05.910Z,28.00
2019-01-21T07:02:05.952Z,32.00
2019-01-21T07:03:05.994Z,36.00
2019-01-21T07:04:06.037Z,40.00
2019-01-21T07:05:06.085Z,48.00
2019-01-21T07:06:06.122Z,52.00
2019-01-21T07:07:06.164Z,60.00
2019-01-21T07:08:06.639Z,68.00
2019-01-21T07:09:06.251Z,76.00
2019-01-21T07:10:06.292Z,88.00
2019-01-21T07:11:06.341Z,100.00
2019-01-21T07:12:06.379Z,108.00
2019-01-21T07:13:06.422Z,120.00
2019-01-21T07:14:06.464Z,136.00
2019-01-21T07:15:06.509Z,148.00
2019-01-21T07:16:06.550Z,160.00
2019-01-21T07:17:06.643Z,180.00
2019-01-21T07:18:06.636Z,196.00
2019-01-21T07:19:11.017Z,212.00
2019-01-21T07:20:06.720Z,232.00
2019-01-21T07:21:06.763Z,248.00
2019-01-21T07:22:06.805Z,272.00
2019-01-21T07:23:06.848Z,292.00
2019-01-21T07:24:06.893Z,312.00
2019-01-21T07:25:06.933Z,336.00
2019-01-21T07:26:06.975Z,356.00
2019-01-21T07:27:07.018Z,380.00
2019-01-21T07:28:07.063Z,404.00
2019-01-21T07:29:07.104Z,428.00
2019-01-21T07:30:07.154Z,452.00
2019-01-21T07:31:07.189Z,480.00
2019-01-21T07:32:07.231Z,508.00
2019-01-21T07:33:07.278Z,532.00
2019-01-21T07:34:07.317Z,560.00
2019-01-21T07:35:07.361Z,592.00
2019-01-21T07:36:07.404Z,620.00
2019-01-21T07:37:07.446Z,644.00
2019-01-21T07:38:07.488Z,680.00
2019-01-21T07:39:07.532Z,708.00
2019-01-21T07:40:07.573Z,744.00
2019-01-21T07:41:07.618Z,772.00
2019-01-21T07:42:07.660Z,804.00
2019-01-21T07:43:07.703Z,828.00
2019-01-21T07:44:07.745Z,860.00
2019-01-21T07:45:07.789Z,892.00
2019-01-21T07:46:07.830Z,924.00
2019-01-21T07:47:08.225Z,952.00
2019-01-21T07:48:07.919Z,980.00
2019-01-21T07:49:07.961Z,1012.00
2019-01-21T07:50:08.003Z,1048.00
2019-01-21T07:51:08.045Z,1072.00
2019-01-21T07:52:08.087Z,1100.00
2019-01-21T07:53:08.131Z,1132.00
2019-01-21T07:54:08.174Z,1160.00
2019-01-21T07:55:08.216Z,1192.00
2019-01-21T07:56:08.263Z,1220.00
2019-01-21T07:57:08.303Z,1240.00
2019-01-21T07:58:08.346Z,1272.00
2019-01-21T07:59:08.390Z,1304.00
2019-01-21T08:00:08.433Z,1340.00
2019-01-21T08:01:08.474Z,1384.00
2019-01-21T08:02:08.520Z,1428.00
2019-01-21T08:03:08.560Z,1460.00
2019-01-21T08:04:08.603Z,1484.00
2019-01-21T08:05:08.647Z,1500.00
2019-01-21T08:06:08.688Z,1532.00
2019-01-21T08:07:08.731Z,1560.00
2019-01-21T08:08:08.775Z,1588.00
2019-01-21T08:09:08.817Z,1624.00
2019-01-21T08:10:08.860Z,1640.00
2019-01-21T08:11:08.903Z,1672.00
2019-01-21T08:12:08.946Z,1700.00
2019-01-21T08:13:08.990Z,1728.00
2019-01-21T08:14:09.031Z,1744.00
2019-01-21T08:15:09.074Z,1768.00
2019-01-21T08:16:09.118Z,1792.00
2019-01-21T08:17:09.162Z,1820.00
2019-01-21T08:18:09.205Z,1856.00
2019-01-21T08:19:09.246Z,1892.00
2019-01-21T08:20:09.290Z,1924.00
2019-01-21T08:21:09.333Z,1956.00
2019-01-21T08:22:09.378Z,1976.00
2019-01-21T08:23:09.420Z,1996.00
2019-01-21T08:24:09.464Z,2020.00
2019-01-21T08:25:09.508Z,2040.00
2019-01-21T08:26:09.550Z,2060.00
2019-01-21T08:27:09.594Z,2084.00
2019-01-21T08:28:09.638Z,2108.00
2019-01-21T08:29:09.681Z,2128.00
2019-01-21T08:30:09.730Z,2160.00
2019-01-21T08:31:09.768Z,2196.00
2019-01-21T08:32:09.813Z,2224.00
2019-01-21T08:33:09.856Z,2252.00
2019-01-21T08:34:09.900Z,2276.00
2019-01-21T08:35:09.946Z,2296.00
2019-01-21T08:36:09.989Z,2312.00
2019-01-21T08:37:10.031Z,2328.00
2019-01-21T08:38:10.077Z,2356.00
2019-01-21T08:39:10.123Z,2376.00
2019-01-21T08:40:10.181Z,2408.00
2019-01-21T08:41:10.209Z,2432.00
2019-01-21T08:42:10.561Z,2456.00
2019-01-21T08:43:10.295Z,2476.00
2019-01-21T08:44:10.340Z,2492.00
2019-01-21T08:45:10.385Z,2516.00
2019-01-21T08:46:10.427Z,2536.00
2019-01-21T08:47:10.472Z,2556.00
2019-01-21T08:48:10.515Z,2568.00
2019-01-21T08:49:10.559Z,2588.00
2019-01-21T08:50:11.167Z,2600.00
2019-01-21T08:51:10.648Z,2624.00
2019-01-21T08:52:11.379Z,2656.00
2019-01-21T08:53:10.735Z,2700.00
2019-01-21T08:54:10.779Z,2744.00
2019-01-21T08:55:10.822Z,2800.00
2019-01-21T08:56:10.869Z,2840.00
2019-01-21T08:57:10.912Z,2852.00
2019-01-21T08:58:10.957Z,2868.00
2019-01-21T08:59:11.000Z,2876.00
2019-01-21T09:00:11.046Z,2892.00
2019-01-21T09:01:11.092Z,2900.00
2019-01-21T09:02:11.133Z,2904.00
2019-01-21T09:03:14.555Z,2904.00
2019-01-21T09:04:11.222Z,2916.00
2019-01-21T09:05:11.269Z,2936.00
2019-01-21T09:06:11.312Z,2956.00
2019-01-21T09:07:11.355Z,2976.00
2019-01-21T09:08:11.401Z,2996.00
2019-01-21T09:09:11.445Z,3012.00
2019-01-21T09:10:11.488Z,3024.00
2019-01-21T09:11:11.532Z,3024.00
2019-01-21T09:12:11.577Z,3032.00
2019-01-21T09:13:11.623Z,3060.00
2019-01-21T09:14:11.673Z,3092.00
2019-01-21T09:15:12.262Z,3116.00
2019-01-21T09:16:11.755Z,3136.00
2019-01-21T09:17:12.226Z,3144.00
2019-01-21T09:18:11.845Z,3148.00
2019-01-21T09:19:11.890Z,3148.00
2019-01-21T09:20:11.937Z,3164.00
2019-01-21T09:21:11.980Z,3176.00
2019-01-21T09:22:12.023Z,3188.00
2019-01-21T09:23:12.067Z,3196.00
2019-01-21T09:24:12.112Z,3208.00
2019-01-21T09:25:12.928Z,3224.00
2019-01-21T09:26:12.202Z,3240.00
2019-01-21T09:27:12.253Z,3264.00
2019-01-21T09:28:12.293Z,3284.00
2019-01-21T09:29:12.340Z,3308.00
2019-01-21T09:30:12.380Z,3332.00
2019-01-21T09:31:12.425Z,3356.00
2019-01-21T09:32:12.470Z,3376.00
2019-01-21T09:33:12.519Z,3392.00
2019-01-21T09:34:12.560Z,3404.00
2019-01-21T09:35:13.232Z,3408.00
2019-01-21T09:36:12.717Z,3420.00
2019-01-21T09:37:13.172Z,3432.00
2019-01-21T09:38:12.742Z,3448.00
2019-01-21T09:39:12.785Z,3468.00
2019-01-21T09:40:12.830Z,3488.00
2019-01-21T09:41:12.875Z,3508.00
2019-01-21T09:42:12.919Z,3524.00
2019-01-21T09:43:12.967Z,3544.00
2019-01-21T09:44:13.010Z,3572.00
2019-01-21T09:45:13.060Z,3588.00
2019-01-21T09:46:13.100Z,3604.00
2019-01-21T09:47:13.145Z,3608.00
2019-01-21T09:48:13.221Z,3620.00
2019-01-21T09:49:13.237Z,3628.00
2019-01-21T09:50:13.852Z,3644.00
2019-01-21T09:51:13.325Z,3680.00
2019-01-21T09:52:13.373Z,3700.00
2019-01-21T09:53:13.418Z,3720.00
2019-01-21T09:54:13.462Z,3724.00
2019-01-21T09:55:13.508Z,3712.00
2019-01-21T09:56:13.553Z,3700.00
2019-01-21T09:57:13.637Z,3700.00
2019-01-21T09:58:13.642Z,3712.00
2019-01-21T09:59:13.689Z,3740.00
2019-01-21T10:00:13.736Z,3756.00
2019-01-21T10:01:13.780Z,3764.00
2019-01-21T10:02:13.824Z,3756.00
2019-01-21T10:03:13.869Z,3756.00
2019-01-21T10:04:13.916Z,3772.00
2019-01-21T10:05:13.963Z,3800.00
2019-01-21T10:06:14.007Z,3844.00
2019-01-21T10:07:14.053Z,3868.00
2019-01-21T10:08:14.098Z,3880.00
2019-01-21T10:09:14.143Z,3884.00
2019-01-21T10:10:14.192Z,3884.00
2019-01-21T10:11:14.238Z,3896.00
2019-01-21T10:12:14.281Z,3896.00
2019-01-21T10:13:14.331Z,3912.00
2019-01-21T10:14:14.373Z,3920.00
2019-01-21T10:15:14.434Z,3928.00
2019-01-21T10:16:14.495Z,3932.00
2019-01-21T10:17:14.512Z,3960.00
2019-01-21T10:18:14.559Z,3984.00
2019-01-21T10:19:14.602Z,4000.00
2019-01-21T10:20:14.648Z,4020.00
2019-01-21T10:21:14.695Z,4032.00
2019-01-21T10:22:14.743Z,4044.00
2019-01-21T10:23:14.786Z,4056.00
2019-01-21T10:24:14.834Z,4084.00
2019-01-21T10:25:14.880Z,4116.00
2019-01-21T10:26:14.924Z,4148.00
2019-01-21T10:27:14.972Z,4172.00
2019-01-21T10:28:15.019Z,4180.00
2019-01-21T10:29:15.065Z,4176.00
2019-01-21T10:30:15.111Z,4188.00
2019-01-21T10:31:15.159Z,4200.00
2019-01-21T10:32:15.203Z,4208.00
2019-01-21T10:33:15.251Z,4220.00
2019-01-21T10:34:15.301Z,4224.00
2019-01-21T10:35:15.340Z,4256.00
2019-01-21T10:36:15.388Z,4268.00
2019-01-21T10:37:15.782Z,4284.00
2019-01-21T10:38:15.483Z,4304.00
2019-01-21T10:39:15.558Z,4336.00
2019-01-21T10:40:15.575Z,4364.00
2019-01-21T10:41:15.622Z,4384.00
2019-01-21T10:42:15.669Z,4368.00
2019-01-21T10:43:16.307Z,4332.00
2019-01-21T10:44:15.760Z,4324.00
2019-01-21T10:45:15.806Z,4344.00
2019-01-21T10:46:15.853Z,4380.00
2019-01-21T10:47:15.900Z,4408.00
2019-01-21T10:48:15.945Z,4424.00
2019-01-21T10:49:15.995Z,4432.00
2019-01-21T10:50:16.038Z,4452.00
2019-01-21T10:51:16.086Z,4460.00
2019-01-21T10:52:16.133Z,4448.00
2019-01-21T10:53:16.179Z,4428.00
2019-01-21T10:54:16.225Z,4416.00
2019-01-21T10:55:16.271Z,4448.00
2019-01-21T10:56:16.320Z,4496.00
2019-01-21T10:57:16.366Z,4548.00
2019-01-21T10:58:16.457Z,4580.00
2019-01-21T10:59:16.460Z,4592.00
2019-01-21T11:00:16.838Z,4572.00
2019-01-21T11:01:16.555Z,4552.00
2019-01-21T11:02:16.600Z,4532.00
2019-01-21T11:03:16.656Z,4520.00
2019-01-21T11:04:16.694Z,4540.00
2019-01-21T11:05:16.741Z,4596.00
2019-01-21T11:06:16.788Z,4656.00
2019-01-21T11:07:16.834Z,4696.00
2019-01-21T11:08:16.881Z,4680.00
2019-01-21T11:09:16.929Z,4636.00
2019-01-21T11:10:16.976Z,4608.00
2019-01-21T11:11:17.024Z,4596.00
2019-01-21T11:12:17.075Z,4592.00
2019-01-21T11:13:17.119Z,4600.00
2019-01-21T11:14:17.556Z,4632.00
2019-01-21T11:15:17.230Z,4664.00
2019-01-21T11:16:17.259Z,4684.00
2019-01-21T11:17:17.306Z,4684.00
2019-01-21T11:18:17.354Z,4664.00
2019-01-21T11:19:21.876Z,4660.00
2019-01-21T11:20:17.465Z,4676.00
2019-01-21T11:21:17.511Z,4708.00
2019-01-21T11:22:17.544Z,4740.00
2019-01-21T11:23:17.593Z,4748.00
2019-01-21T11:24:17.648Z,4764.00
2019-01-21T11:25:17.688Z,4768.00
2019-01-21T11:26:17.736Z,4788.00
2019-01-21T11:27:17.782Z,4804.00
2019-01-21T11:28:17.836Z,4828.00
2019-01-21T11:29:17.916Z,4852.00
2019-01-21T11:30:18.480Z,4876.00
2019-01-21T11:31:17.971Z,4884.00
2019-01-21T11:32:18.027Z,4888.00
2019-01-21T11:33:18.067Z,4864.00
2019-01-21T11:34:18.114Z,4848.00
2019-01-21T11:35:18.161Z,4852.00
2019-01-21T11:36:18.238Z,4848.00
2019-01-21T11:37:18.258Z,4852.00
2019-01-21T11:38:18.306Z,4864.00
2019-01-21T11:39:18.363Z,4876.00
2019-01-21T11:40:18.445Z,4888.00
2019-01-21T11:41:18.449Z,4908.00
2019-01-21T11:42:18.536Z,4928.00
2019-01-21T11:43:18.548Z,4956.00
2019-01-21T11:44:18.592Z,4992.00
2019-01-21T11:45:19.018Z,5096.00
2019-01-21T11:46:18.689Z,5332.00
2019-01-21T11:47:18.737Z,5768.00
2019-01-21T11:48:18.789Z,6584.00
2019-01-21T11:49:18.835Z,8228.00
2019-01-21T11:50:18.885Z,10560.00
2019-01-21T11:51:18.932Z,12828.00
2019-01-21T11:52:18.981Z,14272.00
2019-01-21T11:53:19.030Z,15272.00
2019-01-21T11:54:19.079Z,16160.00
2019-01-21T11:55:19.128Z,16480.00
2019-01-21T11:56:19.178Z,16672.00
2019-01-21T11:57:19.231Z,16736.00
2019-01-21T11:58:19.277Z,16672.00
2019-01-21T11:59:19.327Z,16672.00
2019-01-21T12:00:19.423Z,16704.00
2019-01-21T12:01:19.430Z,16800.00
2019-01-21T12:02:19.518Z,16736.00
2019-01-21T12:03:23.513Z,16800.00
2019-01-21T12:04:19.583Z,16800.00
2019-01-21T12:05:19.635Z,16736.00
2019-01-21T12:06:19.686Z,16672.00
2019-01-21T12:07:19.738Z,16576.00
2019-01-21T12:08:19.792Z,16576.00
2019-01-21T12:09:19.844Z,16640.00
2019-01-21T12:10:20.240Z,16512.00
2019-01-21T12:11:19.946Z,16384.00
2019-01-21T12:12:20.623Z,16352.00
2019-01-21T12:13:20.053Z,16512.00
2019-01-21T12:14:20.107Z,16480.00
2019-01-21T12:15:20.165Z,16544.00
2019-01-21T12:16:20.215Z,16480.00
2019-01-21T12:17:20.267Z,16544.00
2019-01-21T12:18:20.315Z,16480.00
2019-01-21T12:19:20.367Z,16448.00
2019-01-21T12:20:20.425Z,16544.00
2019-01-21T12:21:20.475Z,16512.00
2019-01-21T12:22:20.526Z,16544.00
2019-01-21T12:23:20.581Z,16704.00
2019-01-21T12:24:20.656Z,16992.00
2019-01-21T12:25:20.687Z,17120.00
2019-01-21T12:26:20.750Z,17280.00
2019-01-21T12:27:20.795Z,17408.00
2019-01-21T12:28:20.849Z,17376.00
2019-01-21T12:29:21.289Z,17600.00
2019-01-21T12:30:20.955Z,17760.00
2019-01-21T12:31:21.009Z,17920.00
2019-01-21T12:32:21.067Z,18112.00
2019-01-21T12:33:21.141Z,18208.00
2019-01-21T12:34:21.171Z,18304.00
2019-01-21T12:35:21.233Z,18432.00
2019-01-21T12:36:21.281Z,18528.00
2019-01-21T12:37:21.337Z,18720.00
2019-01-21T12:38:21.390Z,18368.00
2019-01-21T12:40:21.499Z,18432.00
2019-01-21T12:41:21.894Z,18208.00
2019-01-21T12:42:21.607Z,18016.00
2019-01-21T12:43:21.663Z,18016.00
2019-01-21T12:44:21.716Z,17824.00
2019-01-21T12:45:21.772Z,17728.00